Time;durP1;ratioP1;P1;durP2;ratioP2;P2;SDS_P1;SDS_P2;PMS_P1;PMS_P2;Temp;Humidity;BMP_temperature;BMP_pressure;BME280_temperature;BME280_humidity;BME280_pressure;Samples;Min_cycle;Max_cycle;Signal;HPM_P1;HPM_P2
2023/01/12 00:01:21;;;;;;;15.57;3.50;;;;;;;7.36;100.00;100674.06;4977690;28;20199;-76
2023/01/12 00:03:47;;;;;;;16.23;3.90;;;;;;;7.37;100.00;100683.41;5007571;28;20190;-76
2023/01/12 00:06:13;;;;;;;14.87;3.63;;;;;;;7.43;100.00;100690.38;4991232;28;20217;-75
2023/01/12 00:08:39;;;;;;;11.97;3.23;;;;;;;7.45;100.00;100683.63;5009586;28;20273;-76
2023/01/12 00:11:04;;;;;;;16.23;3.50;;;;;;;7.47;100.00;100702.41;4998584;28;20667;-76
2023/01/12 00:13:31;;;;;;;13.43;3.93;;;;;;;7.46;100.00;100680.28;4987889;28;20203;-76
2023/01/12 00:18:42;;;;;;;17.40;3.90;;;;;;;7.56;100.00;100667.84;5007533;28;20222;-76
2023/01/12 00:21:07;;;;;;;12.20;3.53;;;;;;;7.57;100.00;100673.81;4999178;28;20198;-76
2023/01/12 00:23:33;;;;;;;14.93;3.40;;;;;;;7.61;100.00;100665.44;4997567;28;20203;-76
2023/01/12 00:25:58;;;;;;;14.13;3.40;;;;;;;7.64;100.00;100663.81;5005289;28;20269;-76
2023/01/12 00:28:24;;;;;;;14.83;3.70;;;;;;;7.58;100.00;100655.16;5000316;28;20224;-76
2023/01/12 00:30:49;;;;;;;8.33;3.20;;;;;;;7.59;100.00;100652.66;5003230;28;20277;-76
2023/01/12 00:33:14;;;;;;;11.33;3.00;;;;;;;7.60;100.00;100677.28;5002959;28;20229;-76
2023/01/12 00:35:40;;;;;;;14.83;3.37;;;;;;;7.58;100.00;100668.75;5003486;28;20544;-76
2023/01/12 00:38:05;;;;;;;10.03;3.70;;;;;;;7.53;100.00;100680.50;4999030;28;20789;-76
2023/01/12 00:40:31;;;;;;;11.57;3.47;;;;;;;7.58;100.00;100656.03;4992994;28;20289;-76
2023/01/12 00:45:41;;;;;;;7.53;3.37;;;;;;;7.50;100.00;100662.56;5008711;28;20233;-76
2023/01/12 00:48:11;;;;;;;12.43;4.23;;;;;;;7.58;100.00;100668.75;5003045;28;20223;-76
2023/01/12 00:50:37;;;;;;;10.40;2.67;;;;;;;7.55;100.00;100673.75;4999073;28;20191;-76
2023/01/12 00:53:02;;;;;;;8.73;3.03;;;;;;;7.62;100.00;100674.81;4987198;28;20197;-76
2023/01/12 00:55:28;;;;;;;6.83;2.63;;;;;;;7.66;100.00;100657.13;5006630;28;20195;-76
2023/01/12 00:57:53;;;;;;;16.73;3.67;;;;;;;7.70;100.00;100652.94;5004934;28;20265;-76
2023/01/12 01:00:19;;;;;;;14.97;3.30;;;;;;;7.65;100.00;100662.16;4987372;28;20199;-76
2023/01/12 01:02:45;;;;;;;8.83;3.70;;;;;;;7.64;100.00;100655.34;4989209;28;20273;-76
2023/01/12 01:05:10;;;;;;;11.97;3.13;;;;;;;7.60;100.00;100654.38;4996120;28;20191;-76
2023/01/12 01:07:36;;;;;;;11.60;3.43;;;;;;;7.60;100.00;100649.28;5004457;28;20194;-76
2023/01/12 01:10:02;;;;;;;9.77;2.50;;;;;;;7.61;100.00;100651.00;5005244;28;20262;-76
2023/01/12 01:12:27;;;;;;;9.47;3.40;;;;;;;7.59;100.00;100649.22;4996303;28;20194;-76
2023/01/12 01:14:52;;;;;;;10.83;2.90;;;;;;;7.62;100.00;100644.22;4989118;28;20191;-76
2023/01/12 01:17:18;;;;;;;12.87;3.30;;;;;;;7.62;100.00;100646.78;4979512;28;20188;-76
2023/01/12 01:19:43;;;;;;;13.30;3.20;;;;;;;7.61;100.00;100651.00;4994851;28;20264;-76
2023/01/12 01:22:09;;;;;;;11.07;3.00;;;;;;;7.71;100.00;100649.56;4993734;28;20223;-76
2023/01/12 01:24:34;;;;;;;9.70;2.97;;;;;;;7.68;100.00;100658.00;4996638;28;20213;-76
2023/01/12 01:27:00;;;;;;;9.07;2.73;;;;;;;7.70;100.00;100647.84;4993071;28;20248;-76
2023/01/12 01:29:25;;;;;;;12.33;3.10;;;;;;;7.67;100.00;100648.63;5003041;28;20747;-76
2023/01/12 01:31:53;;;;;;;10.73;3.53;;;;;;;7.68;100.00;100657.13;5003949;28;20729;-75
2023/01/12 01:34:19;;;;;;;10.97;3.07;;;;;;;7.70;100.00;100647.84;5002392;28;20590;-76
2023/01/12 01:36:44;;;;;;;9.10;2.63;;;;;;;7.68;100.00;100658.00;5003841;28;20202;-76
2023/01/12 01:39:10;;;;;;;11.03;3.40;;;;;;;7.71;100.00;100647.03;4991614;28;20214;-76
2023/01/12 01:41:35;;;;;;;10.87;2.53;;;;;;;7.74;100.00;100642.03;4989197;28;20208;-77
2023/01/12 01:44:03;;;;;;;12.53;3.10;;;;;;;7.78;100.00;100636.19;4991586;28;20197;-76
2023/01/12 01:46:49;;;;;;;13.03;2.77;;;;;;;7.77;100.00;100642.97;5007843;28;20214;-76
2023/01/12 01:49:23;;;;;;;10.90;2.93;;;;;;;7.80;100.00;100634.53;5010890;28;20213;-76
2023/01/12 01:51:52;;;;;;;8.10;2.33;;;;;;;7.82;100.00;100638.84;5003113;28;20628;-76
2023/01/12 01:54:17;;;;;;;10.30;2.90;;;;;;;7.78;100.00;100629.38;5001737;28;20270;-76
2023/01/12 01:56:44;;;;;;;9.70;3.00;;;;;;;7.84;100.00;100638.91;4984625;28;20306;-76
2023/01/12 01:59:15;;;;;;;9.60;2.80;;;;;;;7.87;100.00;100632.19;5007868;28;20215;-76
2023/01/12 02:01:41;;;;;;;11.00;2.90;;;;;;;7.89;100.00;100629.69;4980900;28;20570;-76
2023/01/12 02:04:07;;;;;;;12.97;3.40;;;;;;;7.89;100.00;100633.09;5009961;28;20199;-76
2023/01/12 02:06:32;;;;;;;9.97;2.67;;;;;;;7.98;100.00;100641.00;5002501;28;20202;-76
2023/01/12 02:09:13;;;;;;;8.87;2.60;;;;;;;7.97;100.00;100634.16;5008899;28;20211;-76
2023/01/12 02:17:12;;;;;;;8.83;2.70;;;;;;;8.01;100.00;100612.16;4997214;28;20223;-76
2023/01/12 02:20:08;;;;;;;8.97;2.70;;;;;;;7.97;100.00;100613.75;5001040;28;20210;-76
2023/01/12 02:22:43;;;;;;;9.73;2.70;;;;;;;8.01;100.00;100615.56;4979996;28;20733;-75
2023/01/12 02:25:14;;;;;;;9.07;2.90;;;;;;;7.97;100.00;100613.75;4985096;28;20205;-76
2023/01/12 02:27:46;;;;;;;7.67;2.80;;;;;;;7.99;100.00;100612.13;4993261;28;20281;-76
2023/01/12 02:30:46;;;;;;;9.33;3.20;;;;;;;8.01;100.00;100615.56;5000876;28;20265;-76
2023/01/12 02:33:45;;;;;;;12.00;3.33;;;;;;;7.98;100.00;100615.50;4975061;28;20195;-76
2023/01/12 02:36:30;;;;;;;12.90;3.03;;;;;;;7.99;100.00;100617.22;4989400;28;20257;-76
2023/01/12 02:39:25;;;;;;;8.10;2.73;;;;;;;8.05;100.00;100619.91;5003960;28;20307;-76
2023/01/12 02:45:18;;;;;;;13.10;3.50;;;;;;;7.98;100.00;100612.97;5009904;28;20186;-76
2023/01/12 02:47:55;;;;;;;7.60;3.23;;;;;;;7.94;100.00;100611.16;4983614;28;20214;-76
2023/01/12 02:50:34;;;;;;;8.73;2.90;;;;;;;7.94;100.00;100615.38;5006849;28;20191;-76
2023/01/12 02:53:09;;;;;;;9.10;2.87;;;;;;;7.93;100.00;100611.09;5011653;28;20211;-76
2023/01/12 02:55:36;;;;;;;7.33;3.20;;;;;;;7.93;100.00;100614.50;5017275;28;20244;-75
2023/01/12 02:58:05;;;;;;;7.07;2.83;;;;;;;7.92;100.00;100599.19;4992744;28;20215;-76
2023/01/12 03:00:34;;;;;;;10.30;2.80;;;;;;;7.94;100.00;100602.63;5006332;28;20203;-76
2023/01/12 03:02:59;;;;;;;6.63;2.50;;;;;;;7.96;100.00;100616.25;4993322;28;20208;-75
2023/01/12 03:05:26;;;;;;;9.70;2.63;;;;;;;7.97;100.00;100605.25;5007821;28;20265;-75
2023/01/12 03:07:59;;;;;;;6.37;2.70;;;;;;;7.92;100.00;100591.53;5014567;28;20186;-76
2023/01/12 03:10:27;;;;;;;13.13;2.33;;;;;;;7.88;100.00;100595.66;5010466;28;20195;-76
2023/01/12 03:12:56;;;;;;;8.53;2.23;;;;;;;7.85;100.00;100610.91;5003387;28;20227;-76
2023/01/12 03:15:23;;;;;;;9.70;2.23;;;;;;;7.82;100.00;100602.28;5011225;28;20213;-76
2023/01/12 03:17:58;;;;;;;8.90;2.30;;;;;;;7.80;100.00;100609.94;5007668;28;20223;-76
2023/01/12 03:20:37;;;;;;;6.73;2.13;;;;;;;7.77;100.00;100599.66;4987476;28;20245;-76
2023/01/12 03:23:10;;;;;;;6.70;2.40;;;;;;;7.77;100.00;100608.97;5004003;28;20196;-76
2023/01/12 03:25:39;;;;;;;5.50;2.03;;;;;;;7.70;100.00;100612.19;4988048;28;20202;-76
2023/01/12 03:28:07;;;;;;;9.77;2.17;;;;;;;7.68;100.00;100611.25;5006731;28;20193;-76
2023/01/12 03:30:37;;;;;;;6.77;1.73;;;;;;;7.62;100.00;100613.66;4988759;28;20535;-76
2023/01/12 03:33:05;;;;;;;9.07;2.13;;;;;;;7.61;100.00;100604.28;4993563;28;20195;-76
2023/01/12 03:35:36;;;;;;;4.33;1.80;;;;;;;7.59;100.00;100601.69;4983264;28;20683;-76
2023/01/12 03:38:40;;;;;;;9.80;2.33;;;;;;;7.62;100.00;100600.91;4995867;28;20636;-76
2023/01/12 03:41:11;;;;;;;4.33;1.70;;;;;;;7.60;100.00;100607.66;4977872;28;20688;-76
2023/01/12 03:43:47;;;;;;;5.60;2.13;;;;;;;7.57;100.00;100602.47;4994044;28;20725;-76
2023/01/12 03:46:43;;;;;;;7.63;1.97;;;;;;;7.61;100.00;100596.66;5005919;28;20593;-76
2023/01/12 03:49:39;;;;;;;8.73;1.93;;;;;;;7.63;100.00;100597.53;5004715;28;20309;-76
2023/01/12 03:52:06;;;;;;;6.13;1.80;;;;;;;7.64;100.00;100587.38;5009540;28;20297;-76
2023/01/12 03:54:35;;;;;;;5.13;1.60;;;;;;;7.70;100.00;100584.16;5018512;28;20213;-76
2023/01/12 03:57:02;;;;;;;6.07;1.80;;;;;;;7.70;100.00;100594.34;4999756;28;20307;-76
2023/01/12 03:59:27;;;;;;;4.80;1.80;;;;;;;7.68;100.00;100579.00;4998724;28;20215;-76
2023/01/12 04:01:53;;;;;;;3.40;1.77;;;;;;;7.76;100.00;100590.28;4994655;28;20668;-76
2023/01/12 04:04:19;;;;;;;6.83;1.80;;;;;;;7.78;100.00;100577.59;5010785;28;20210;-76
2023/01/12 04:06:44;;;;;;;5.47;1.83;;;;;;;7.78;100.00;100575.88;5009860;28;20205;-75
2023/01/12 04:09:10;;;;;;;7.93;2.63;;;;;;;7.81;100.00;100564.91;5001457;28;20230;-76
2023/01/12 04:14:19;;;;;;;7.03;2.67;;;;;;;7.81;100.00;100570.00;5004436;28;20266;-76
2023/01/12 04:16:45;;;;;;;6.53;2.20;;;;;;;7.78;100.00;100564.84;5001254;28;20314;-76
2023/01/12 04:19:11;;;;;;;6.53;2.10;;;;;;;7.77;100.00;100566.50;5014713;28;20227;-76
2023/01/12 04:24:20;;;;;;;7.33;2.60;;;;;;;7.77;100.00;100566.50;5012665;28;20241;-76
2023/01/12 04:26:46;;;;;;;5.03;2.30;;;;;;;7.76;100.00;100562.25;5006303;28;20198;-76
2023/01/12 04:29:11;;;;;;;6.20;2.23;;;;;;;7.80;100.00;100563.19;5001019;28;20333;-76
2023/01/12 04:31:38;;;;;;;8.17;2.47;;;;;;;7.81;100.00;100558.13;4999292;28;20286;-76
2023/01/12 04:34:03;;;;;;;12.47;3.17;;;;;;;7.84;100.00;100542.03;5016620;28;20230;-76
2023/01/12 04:36:28;;;;;;;5.50;2.30;;;;;;;7.86;100.00;100543.81;4993645;28;20291;-76
2023/01/12 04:38:54;;;;;;;9.10;2.20;;;;;;;7.86;100.00;100533.63;4990945;28;20269;-76
2023/01/12 04:41:19;;;;;;;6.20;2.43;;;;;;;7.86;100.00;100540.38;5001133;28;20299;-76
2023/01/12 04:43:45;;;;;;;11.87;2.33;;;;;;;7.87;100.00;100531.94;4993022;28;20238;-76
2023/01/12 04:46:10;;;;;;;7.07;2.23;;;;;;;7.86;100.00;100531.06;5006200;28;20634;-76
2023/01/12 04:48:42;;;;;;;10.70;2.50;;;;;;;7.87;100.00;100524.28;4999035;28;20638;-76
2023/01/12 04:51:08;;;;;;;10.17;2.50;;;;;;;7.86;100.00;100525.97;5009564;28;20207;-76
2023/01/12 04:53:33;;;;;;;9.33;2.87;;;;;;;8.04;100.00;100526.41;5011049;28;20199;-76
2023/01/12 04:56:03;;;;;;;10.00;2.30;;;;;;;8.01;100.00;100520.41;4991285;28;20684;-76
2023/01/12 04:58:29;;;;;;;5.67;2.57;;;;;;;7.96;100.00;100515.16;4996950;28;20219;-76
2023/01/12 05:00:54;;;;;;;6.00;2.03;;;;;;;7.93;100.00;100515.09;4984412;28;20187;-76
2023/01/12 05:03:20;;;;;;;7.83;2.30;;;;;;;7.95;100.00;100512.56;5006039;28;20225;-76
2023/01/12 05:05:45;;;;;;;4.63;2.10;;;;;;;7.94;100.00;100508.31;5008768;28;20263;-76
2023/01/12 05:10:58;;;;;;;8.50;2.93;;;;;;;7.90;100.00;100502.28;5004722;28;20202;-76
2023/01/12 05:13:26;;;;;;;6.27;2.27;;;;;;;7.87;100.00;100512.41;4991560;28;20192;-76
2023/01/12 05:15:52;;;;;;;11.40;2.50;;;;;;;7.88;100.00;100498.81;5009474;28;20193;-76
2023/01/12 05:18:17;;;;;;;5.90;2.30;;;;;;;7.87;100.00;100511.56;4994521;28;20602;-76
2023/01/12 05:20:42;;;;;;;7.03;2.33;;;;;;;7.87;100.00;100501.34;4987568;28;20660;-76
2023/01/12 05:23:08;;;;;;;9.93;2.37;;;;;;;7.88;100.00;100498.81;4994620;28;20677;-76
2023/01/12 05:25:34;;;;;;;3.70;1.90;;;;;;;7.88;100.00;100491.16;5014361;28;20202;-76
2023/01/12 05:27:59;;;;;;;7.70;3.00;;;;;;;7.88;100.00;100485.22;4982836;28;20246;-76
2023/01/12 05:30:25;;;;;;;7.97;2.50;;;;;;;7.87;100.00;100479.25;4998793;28;20201;-76
2023/01/12 05:32:51;;;;;;;10.93;2.90;;;;;;;7.88;100.00;100477.59;5006467;28;20230;-76
2023/01/12 05:35:16;;;;;;;7.47;2.87;;;;;;;7.87;100.00;100463.13;4986104;28;20215;-76
2023/01/12 05:37:42;;;;;;;6.63;3.03;;;;;;;7.87;100.00;100465.66;4994813;28;20683;-76
2023/01/12 05:40:09;;;;;;;8.80;3.37;;;;;;;7.90;100.00;100468.28;5000300;28;20211;-76
2023/01/12 05:45:18;;;;;;;6.67;3.47;;;;;;;7.87;100.00;100453.78;5003704;28;20279;-76
2023/01/12 05:47:43;;;;;;;8.37;3.23;;;;;;;7.86;100.00;100451.19;4992957;28;20350;-76
2023/01/12 05:50:09;;;;;;;10.13;3.60;;;;;;;7.86;100.00;100449.50;4990882;28;20234;-76
2023/01/12 05:52:35;;;;;;;6.73;3.53;;;;;;;7.86;100.00;100441.84;5009542;28;20201;-76
2023/01/12 05:55:00;;;;;;;8.17;3.83;;;;;;;7.86;100.00;100434.22;5009470;28;20211;-76
2023/01/12 05:57:29;;;;;;;6.60;3.67;;;;;;;7.85;100.00;100427.41;4989440;28;20195;-75
2023/01/12 05:59:55;;;;;;;7.80;4.13;;;;;;;7.85;100.00;100423.97;5000225;28;20231;-76
2023/01/12 06:02:20;;;;;;;7.53;3.93;;;;;;;7.84;100.00;100415.47;4989728;28;20612;-76
2023/01/12 06:04:46;;;;;;;6.63;3.73;;;;;;;7.84;100.00;100397.63;4987015;28;20207;-75
2023/01/12 06:07:13;;;;;;;10.17;4.10;;;;;;;7.84;100.00;100395.06;5009183;28;20210;-76
2023/01/12 06:09:39;;;;;;;11.33;4.07;;;;;;;7.86;100.00;100397.66;5017321;28;20225;-76
2023/01/12 06:14:49;;;;;;;6.23;3.60;;;;;;;7.86;100.00;100393.44;5008488;28;20678;-76
2023/01/12 06:17:14;;;;;;;9.00;3.93;;;;;;;7.87;100.00;100396.84;4997340;28;20186;-76
2023/01/12 06:19:40;;;;;;;10.27;4.17;;;;;;;7.85;100.00;100386.63;5008316;28;20801;-76
2023/01/12 06:22:08;;;;;;;9.93;3.87;;;;;;;7.87;100.00;100386.66;4995052;28;20894;-76
2023/01/12 06:24:34;;;;;;;9.23;4.20;;;;;;;7.90;100.00;100371.41;5001639;28;20350;-76
2023/01/12 06:26:59;;;;;;;9.93;3.93;;;;;;;7.91;100.00;100373.13;5012821;28;20680;-76
2023/01/12 06:29:25;;;;;;;10.90;3.80;;;;;;;7.91;100.00;100373.13;5004265;28;20645;-77
2023/01/12 06:31:51;;;;;;;7.57;4.50;;;;;;;7.92;100.00;100364.69;5011108;28;20627;-76
2023/01/12 06:34:16;;;;;;;7.73;4.00;;;;;;;7.92;100.00;100359.59;5010873;28;20230;-77
2023/01/12 06:36:42;;;;;;;8.10;3.87;;;;;;;7.93;100.00;100362.13;4983971;28;20566;-76
2023/01/12 06:39:08;;;;;;;8.20;3.90;;;;;;;7.99;100.00;100354.66;4994971;28;20305;-76
2023/01/12 06:44:18;;;;;;;5.70;3.33;;;;;;;7.98;100.00;100350.38;5015841;28;20195;-76
2023/01/12 06:46:44;;;;;;;6.57;3.33;;;;;;;7.97;100.00;100343.53;5010706;28;20199;-77
2023/01/12 06:49:09;;;;;;;5.90;3.90;;;;;;;8.01;100.00;100341.94;5011362;28;20785;-76
2023/01/12 06:51:35;;;;;;;5.97;3.63;;;;;;;8.02;100.00;100346.19;5042794;23;20221;-74
2023/01/12 06:54:01;;;;;;;6.37;3.40;;;;;;;8.04;100.00;100340.31;5030249;28;20198;-75
2023/01/12 06:56:26;;;;;;;5.00;3.33;;;;;;;8.05;100.00;100334.38;5031654;28;20229;-75
2023/01/12 06:58:52;;;;;;;5.43;3.40;;;;;;;8.05;100.00;100328.41;5028388;28;20204;-74
2023/01/12 07:01:17;;;;;;;6.97;3.60;;;;;;;8.06;100.00;100331.00;5006393;28;20206;-74
2023/01/12 07:03:43;;;;;;;5.03;3.53;;;;;;;8.07;100.00;100324.22;5031127;28;20226;-74
2023/01/12 07:06:08;;;;;;;6.30;3.90;;;;;;;8.07;100.00;100306.38;5047491;28;20194;-75
2023/01/12 07:08:34;;;;;;;6.87;3.83;;;;;;;8.09;100.00;100314.88;5029565;28;20194;-75
2023/01/12 07:11:06;;;;;;;5.63;3.43;;;;;;;8.10;100.00;100299.63;5031429;28;20222;-74
2023/01/12 07:13:32;;;;;;;6.17;3.17;;;;;;;8.14;100.00;100295.44;5032305;28;20206;-74
2023/01/12 07:15:59;;;;;;;4.10;3.17;;;;;;;8.15;100.00;100287.00;5038790;28;20558;-74
2023/01/12 07:18:25;;;;;;;4.53;3.30;;;;;;;8.14;100.00;100272.50;5034738;28;20197;-75
2023/01/12 07:20:51;;;;;;;5.20;3.13;;;;;;;8.14;100.00;100278.47;5037375;28;20214;-74
2023/01/12 07:23:16;;;;;;;5.07;3.27;;;;;;;8.16;100.00;100274.25;5039752;28;20205;-74
2023/01/12 07:25:42;;;;;;;4.63;2.40;;;;;;;8.22;100.00;100266.78;4996383;28;20201;-74
2023/01/12 07:28:07;;;;;;;4.30;2.53;;;;;;;8.22;100.00;100259.13;5014160;28;20269;-75
2023/01/12 07:30:33;;;;;;;5.50;2.70;;;;;;;8.21;100.00;100265.03;5043355;28;20194;-75
2023/01/12 07:33:12;;;;;;;5.33;2.33;;;;;;;8.26;100.00;100257.47;5032397;28;20655;-75
2023/01/12 07:35:39;;;;;;;5.17;2.50;;;;;;;8.28;100.00;100255.81;5015517;28;20197;-75
2023/01/12 07:38:05;;;;;;;2.97;2.10;;;;;;;8.28;100.00;100236.28;5011704;28;20203;-75
2023/01/12 07:40:30;;;;;;;3.20;2.23;;;;;;;8.26;100.00;100230.31;5009513;28;20273;-74
2023/01/12 07:43:07;;;;;;;5.20;2.70;;;;;;;8.27;100.00;100226.03;5012251;28;20641;-74
2023/01/12 07:45:35;;;;;;;6.93;2.70;;;;;;;8.29;100.00;100226.94;5018543;28;20186;-75
2023/01/12 07:48:00;;;;;;;5.07;2.60;;;;;;;8.29;100.00;100226.94;5026845;28;20202;-75
2023/01/12 07:50:27;;;;;;;5.20;2.70;;;;;;;8.30;100.00;100215.91;5013174;28;20198;-76
2023/01/12 07:52:53;;;;;;;5.43;2.37;;;;;;;8.30;100.00;100216.75;5029979;28;20240;-75
2023/01/12 07:55:19;;;;;;;6.17;2.40;;;;;;;8.29;100.00;100204.00;5032825;28;20194;-75
2023/01/12 07:57:56;;;;;;;5.70;2.50;;;;;;;8.31;100.00;100213.38;5027038;28;20198;-74
2023/01/12 08:00:22;;;;;;;5.80;2.50;;;;;;;8.32;100.00;100197.25;5031472;28;20276;-74
2023/01/12 08:02:49;;;;;;;5.07;2.13;;;;;;;8.31;100.00;100207.41;5028254;28;20638;-74
2023/01/12 08:05:15;;;;;;;4.13;1.70;;;;;;;8.32;100.00;100199.78;5033158;28;20190;-75
2023/01/12 08:07:40;;;;;;;3.77;2.00;;;;;;;8.35;100.00;100193.88;5035292;28;20240;-74
2023/01/12 08:10:06;;;;;;;3.53;1.90;;;;;;;8.35;100.00;100193.88;4992378;28;20242;-75
2023/01/12 08:12:33;;;;;;;3.80;1.87;;;;;;;8.34;100.00;100193.00;5032945;28;20226;-75
2023/01/12 08:14:59;;;;;;;2.97;1.47;;;;;;;8.34;100.00;100175.16;5010357;28;20746;-75
2023/01/12 08:17:25;;;;;;;2.13;1.47;;;;;;;8.35;100.00;100176.91;5029861;28;20187;-75
2023/01/12 08:20:24;;;;;;;4.10;1.57;;;;;;;8.36;100.00;100170.09;5022358;28;20218;-75
2023/01/12 08:22:54;;;;;;;4.17;1.70;;;;;;;8.35;100.00;100164.16;5023908;28;20630;-74
2023/01/12 08:25:33;;;;;;;3.00;1.57;;;;;;;8.36;100.00;100154.78;5023090;28;20201;-73
2023/01/12 08:28:04;;;;;;;3.60;1.20;;;;;;;8.35;100.00;100163.28;5027057;28;20191;-73
2023/01/12 08:30:30;;;;;;;3.67;1.20;;;;;;;8.38;100.00;100160.78;5036841;28;20254;-74
2023/01/12 08:32:58;;;;;;;3.13;1.00;;;;;;;8.43;100.00;100133.66;5011045;28;20241;-74
2023/01/12 08:35:28;;;;;;;1.80;0.80;;;;;;;8.45;100.00;100147.28;5020790;28;20655;-75
2023/01/12 08:37:55;;;;;;;3.23;1.30;;;;;;;8.40;100.00;100154.88;5009724;28;20203;-74
2023/01/12 08:40:22;;;;;;;3.57;1.10;;;;;;;8.38;100.00;100130.19;5025716;28;20217;-74
2023/01/12 08:42:48;;;;;;;2.43;0.80;;;;;;;8.37;100.00;100120.78;5010293;28;20304;-74
2023/01/12 08:45:14;;;;;;;1.13;0.80;;;;;;;8.38;100.00;100135.28;5032183;28;20214;-74
2023/01/12 08:47:43;;;;;;;1.20;0.60;;;;;;;8.36;100.00;100155.66;5032738;28;20674;-74
2023/01/12 08:50:09;;;;;;;1.67;0.60;;;;;;;8.36;100.00;100129.28;5027580;28;20182;-74
2023/01/12 08:52:35;;;;;;;2.00;0.70;;;;;;;8.33;100.00;100134.31;5030986;28;20214;-75
2023/01/12 08:55:01;;;;;;;2.30;1.00;;;;;;;8.29;100.00;100123.22;5026023;28;20685;-74
2023/01/12 08:57:27;;;;;;;3.03;0.70;;;;;;;8.28;100.00;100118.97;5012278;28;20190;-73
2023/01/12 08:59:52;;;;;;;3.57;0.73;;;;;;;8.26;100.00;100115.53;5007652;28;20707;-75
2023/01/12 09:02:18;;;;;;;1.90;0.70;;;;;;;8.26;100.00;100102.78;5029660;28;20209;-74
2023/01/12 09:04:43;;;;;;;2.40;0.60;;;;;;;8.26;100.00;100095.13;5029198;28;20198;-75
2023/01/12 09:07:10;;;;;;;3.40;0.70;;;;;;;8.28;100.00;100110.44;5027445;28;20237;-74
2023/01/12 09:09:37;;;;;;;3.30;0.50;;;;;;;8.27;100.00;100118.94;5026311;28;20192;-76
2023/01/12 09:12:03;;;;;;;1.30;0.67;;;;;;;8.28;100.00;100102.78;5011405;28;20217;-74
2023/01/12 09:14:28;;;;;;;0.57;0.53;;;;;;;8.27;100.00;100099.41;5004174;28;20234;-75
2023/01/12 09:16:57;;;;;;;1.73;0.83;;;;;;;8.28;100.00;100100.22;5024299;28;20567;-76
2023/01/12 09:19:23;;;;;;;1.03;0.50;;;;;;;8.26;100.00;100104.47;5021491;28;20209;-73
2023/01/12 09:21:48;;;;;;;1.43;0.50;;;;;;;8.26;100.00;100094.25;5023733;28;20215;-74
2023/01/12 09:24:14;;;;;;;1.10;0.67;;;;;;;8.25;100.00;100102.75;5024308;28;20745;-76
2023/01/12 09:26:45;;;;;;;2.97;0.50;;;;;;;8.25;100.00;100120.59;5024558;28;20209;-76
2023/01/12 09:29:11;;;;;;;1.07;0.57;;;;;;;8.26;100.00;100117.22;5030102;28;20226;-74
2023/01/12 09:31:39;;;;;;;1.70;0.50;;;;;;;8.28;100.00;100111.31;5023528;28;20549;-74
2023/01/12 09:34:05;;;;;;;1.10;0.70;;;;;;;8.26;100.00;100105.34;5022718;28;20565;-74
2023/01/12 09:36:33;;;;;;;2.47;0.77;;;;;;;8.28;100.00;100118.97;5007286;28;20186;-75
2023/01/12 09:39:00;;;;;;;1.00;0.60;;;;;;;8.30;100.00;100108.78;5024701;28;20201;-74
2023/01/12 09:47:14;;;;;;;1.00;0.50;;;;;;;8.40;100.00;100110.66;5006214;28;20251;-72
2023/01/12 09:49:44;;;;;;;0.80;0.50;;;;;;;8.45;100.00;100103.94;5014097;28;20236;-71
2023/01/12 09:52:18;;;;;;;1.17;0.40;;;;;;;8.53;100.00;100107.47;5032671;28;20850;-71
2023/01/12 09:54:48;;;;;;;1.03;0.57;;;;;;;8.55;100.00;100109.19;5025503;28;20189;-74
2023/01/12 09:57:33;;;;;;;1.00;0.60;;;;;;;8.57;100.00;100102.41;5028654;28;20191;-74
2023/01/12 10:00:11;;;;;;;2.43;0.63;;;;;;;8.65;100.00;100100.84;5014139;28;20285;-74
2023/01/12 10:03:01;;;;;;;0.50;0.50;;;;;;;8.73;100.00;100099.28;5013333;28;20272;-74
2023/01/12 10:05:39;;;;;;;1.63;0.60;;;;;;;8.76;100.00;100093.34;5014201;28;20202;-74
2023/01/12 10:08:15;;;;;;;0.67;0.60;;;;;;;8.72;100.00;100096.69;5026227;28;20196;-74
2023/01/12 10:10:54;;;;;;;0.60;0.60;;;;;;;8.71;100.00;100103.47;5017476;28;20194;-73
2023/01/12 10:13:21;;;;;;;1.00;0.63;;;;;;;8.67;100.00;100086.41;5023980;28;20194;-74
2023/01/12 10:15:59;;;;;;;1.97;0.70;;;;;;;8.68;100.00;100092.38;5017985;28;20201;-73
2023/01/12 10:18:30;;;;;;;1.37;0.60;;;;;;;8.71;100.00;100100.09;5011307;28;20209;-73
2023/01/12 10:20:59;;;;;;;1.83;0.60;;;;;;;8.77;100.00;100111.25;5022099;28;20234;-73
2023/01/12 10:23:26;;;;;;;0.80;0.80;;;;;;;8.77;100.00;100097.63;5026201;28;21102;-73
2023/01/12 10:26:20;;;;;;;0.70;0.60;;;;;;;8.90;100.00;100086.75;5023157;28;20268;-74
2023/01/12 10:28:46;;;;;;;1.00;0.50;;;;;;;8.90;100.00;100085.03;5019700;28;20218;-74
2023/01/12 10:31:20;;;;;;;1.13;0.70;;;;;;;8.93;100.00;100094.41;5014200;28;20217;-73
2023/01/12 10:34:10;;;;;;;0.63;0.50;;;;;;;8.92;100.00;100092.72;5028234;28;20214;-73
2023/01/12 10:36:52;;;;;;;0.97;0.60;;;;;;;8.95;100.00;100093.63;5024881;28;20202;-74
2023/01/12 10:39:29;;;;;;;0.70;0.60;;;;;;;8.95;100.00;100080.88;5013775;28;20206;-73
2023/01/12 10:45:19;;;;;;;0.87;0.70;;;;;;;8.98;100.00;100086.00;5024942;28;20190;-73
2023/01/12 10:47:46;;;;;;;1.43;0.70;;;;;;;9.00;100.00;100089.44;5007730;28;20194;-74
2023/01/12 10:50:24;;;;;;;1.90;0.70;;;;;;;9.03;100.00;100086.06;5023441;28;20195;-73
2023/01/12 10:52:56;;;;;;;1.67;0.70;;;;;;;9.05;100.00;100085.25;5025571;28;20244;-72
2023/01/12 10:55:23;;;;;;;1.03;0.70;;;;;;;9.23;100.00;100097.38;5005368;28;20234;-68
2023/01/12 10:57:51;;;;;;;1.10;0.70;;;;;;;9.24;100.00;100079.53;5020950;28;20205;-70
2023/01/12 11:00:23;;;;;;;2.43;0.67;;;;;;;9.29;100.00;100082.13;5006379;28;20191;-68
2023/01/12 11:02:49;;;;;;;0.93;0.90;;;;;;;9.33;100.00;100079.66;5009559;28;20265;-67
2023/01/12 11:05:28;;;;;;;0.93;0.80;;;;;;;9.30;100.00;100086.44;5027639;28;20179;-70
2023/01/12 11:07:54;;;;;;;0.87;0.70;;;;;;;9.31;100.00;100076.19;5021141;28;20198;-71
2023/01/12 11:10:27;;;;;;;1.80;0.70;;;;;;;9.34;100.00;100076.25;5024677;28;20221;-71
2023/01/12 11:13:04;;;;;;;1.20;0.60;;;;;;;9.32;100.00;100062.59;5027317;28;20194;-71
2023/01/12 11:15:34;;;;;;;0.70;0.70;;;;;;;9.36;100.00;100076.28;5023093;28;20717;-71
2023/01/12 11:18:37;;;;;;;1.70;0.90;;;;;;;9.47;100.00;100065.34;5028431;28;20194;-71
2023/01/12 11:21:11;;;;;;;0.60;0.60;;;;;;;9.59;100.00;100083.34;5027847;28;20205;-71
2023/01/12 11:24:07;;;;;;;0.90;0.60;;;;;;;9.58;100.00;100066.28;5023728;28;20193;-71
2023/01/12 11:26:35;;;;;;;0.80;0.63;;;;;;;9.73;100.00;100073.28;5027492;28;20222;-72
2023/01/12 11:29:26;;;;;;;0.77;0.70;;;;;;;9.65;100.00;100067.22;5030804;28;20194;-72
2023/01/12 11:31:58;;;;;;;1.10;0.73;;;;;;;9.62;100.00;100074.84;5027285;28;20215;-71
2023/01/12 11:34:29;;;;;;;0.70;0.70;;;;;;;9.61;100.00;100068.03;5012611;28;20225;-71
2023/01/12 11:37:05;;;;;;;0.60;0.50;;;;;;;9.60;100.00;100067.19;5027135;28;20186;-70
2023/01/12 11:39:34;;;;;;;0.83;0.60;;;;;;;9.61;100.00;100063.78;5022381;28;20190;-70
2023/01/12 11:45:05;;;;;;;1.33;0.80;;;;;;;9.69;100.00;100062.16;5025866;28;20190;-71
2023/01/12 11:47:37;;;;;;;1.23;0.67;;;;;;;9.69;100.00;100061.28;5029374;28;20607;-70
2023/01/12 11:50:34;;;;;;;0.77;0.70;;;;;;;9.77;100.00;100064.78;5016734;28;20187;-70
2023/01/12 11:53:03;;;;;;;0.73;0.73;;;;;;;9.84;100.00;100051.22;5007394;28;20278;-71
2023/01/12 11:55:47;;;;;;;1.53;0.80;;;;;;;9.92;100.00;100045.34;5011267;28;20234;-71
2023/01/12 11:58:36;;;;;;;1.50;0.70;;;;;;;10.04;100.00;100045.47;5023287;28;20432;-72
2023/01/12 12:01:15;;;;;;;2.17;0.70;;;;;;;10.07;100.00;100045.50;5028746;28;20218;-71
2023/01/12 12:03:54;;;;;;;0.60;0.60;;;;;;;10.00;100.00;100038.56;5024829;28;20225;-71
2023/01/12 12:06:25;;;;;;;0.70;0.70;;;;;;;10.04;100.00;100042.91;5025421;28;20189;-72
2023/01/12 12:08:57;;;;;;;0.70;0.70;;;;;;;10.13;100.00;100040.44;5017401;28;20237;-72
2023/01/12 12:11:49;;;;;;;0.63;0.63;;;;;;;10.18;100.00;100053.28;5027590;28;20210;-72
2023/01/12 12:14:46;;;;;;;1.07;0.70;;;;;;;10.18;100.00;100037.91;5025269;28;20200;-72
2023/01/12 12:17:26;;;;;;;1.07;0.70;;;;;;;10.21;100.00;100043.91;5006965;28;20195;-72
2023/01/12 12:20:06;;;;;;;0.90;0.57;;;;;;;10.23;100.00;100060.13;5026518;28;20203;-72